Time;durP1;ratioP1;P1;durP2;ratioP2;P2;SDS_P1;SDS_P2;PMS_P1;PMS_P2;Temp;Humidity;BMP_temperature;BMP_pressure;BME280_temperature;BME280_humidity;BME280_pressure;Samples;Min_cycle;Max_cycle;Signal;HPM_P1;HPM_P2
2021/03/27 00:00:44;;;;;;;37.28;22.90;;;;;;;2.34;57.77;97853.04;1666639;86;21318;-79
2021/03/27 00:03:21;;;;;;;37.40;22.45;;;;;;;2.33;57.90;97851.34;1665315;85;21197;-80
2021/03/27 00:06:09;;;;;;;39.83;20.72;;;;;;;2.31;57.95;97859.20;1665432;86;21196;-81
2021/03/27 00:08:58;;;;;;;33.25;20.77;;;;;;;2.34;58.31;97846.53;1852885;77;24306;-79
2021/03/27 00:12:07;;;;;;;36.42;23.55;;;;;;;2.30;57.55;97847.09;1828799;78;21152;-78
2021/03/27 00:14:52;;;;;;;32.75;19.20;;;;;;;2.31;58.10;97844.89;1785191;77;21207;-81
2021/03/27 00:17:44;;;;;;;41.42;22.55;;;;;;;2.28;58.13;97844.99;1802541;79;21251;-78
2021/03/27 00:20:25;;;;;;;39.20;23.10;;;;;;;2.28;57.91;97845.42;1803471;79;21112;-82
2021/03/27 00:23:12;;;;;;;35.35;19.07;;;;;;;2.28;58.04;97845.42;1802785;80;21112;-79
2021/03/27 00:25:56;;;;;;;36.15;21.55;;;;;;;2.28;57.23;97838.92;1804284;77;21135;-81
2021/03/27 00:28:43;;;;;;;40.78;22.00;;;;;;;2.28;57.39;97842.39;1845360;77;21676;-79
2021/03/27 00:31:15;;;;;;;36.85;21.70;;;;;;;2.26;57.47;97844.19;1793861;80;21254;-81
2021/03/27 00:33:57;;;;;;;39.67;21.10;;;;;;;2.25;57.57;97846.85;1788621;80;21159;-79
2021/03/27 00:36:36;;;;;;;38.80;22.45;;;;;;;2.22;58.96;97850.85;1759771;80;21123;-78
2021/03/27 00:39:26;;;;;;;40.73;23.57;;;;;;;2.18;57.93;97841.84;1771809;81;21297;-80
2021/03/27 00:42:02;;;;;;;39.45;20.95;;;;;;;2.16;58.26;97841.50;1765640;81;21305;-81
2021/03/27 00:44:34;;;;;;;39.05;23.52;;;;;;;2.11;58.27;97836.92;1713717;82;21163;-81
2021/03/27 00:47:05;;;;;;;41.37;23.07;;;;;;;2.08;58.49;97840.92;1741046;82;21305;-81
2021/03/27 00:49:41;;;;;;;36.98;22.42;;;;;;;2.05;58.40;97839.72;1741294;81;21580;-79
2021/03/27 00:52:12;;;;;;;34.90;20.45;;;;;;;2.01;58.75;97842.88;1771781;81;21332;-81
2021/03/27 00:54:46;;;;;;;35.75;21.12;;;;;;;1.95;58.73;97842.63;1770843;81;21113;-82
2021/03/27 00:57:31;;;;;;;43.13;23.02;;;;;;;1.92;59.17;97843.18;1753143;81;21135;-81
2021/03/27 01:00:28;;;;;;;39.08;20.10;;;;;;;1.88;59.03;97838.53;1740067;82;21303;-82
2021/03/27 01:03:18;;;;;;;37.80;23.12;;;;;;;1.90;60.06;97847.14;1850638;76;22330;-78
2021/03/27 01:05:55;;;;;;;37.25;23.25;;;;;;;1.84;59.13;97846.05;1811156;77;21139;-77
2021/03/27 01:08:43;;;;;;;37.23;19.73;;;;;;;1.79;59.26;97846.20;1776310;79;21143;-79
2021/03/27 01:11:35;;;;;;;37.67;21.82;;;;;;;1.73;59.53;97845.09;1778566;80;21119;-80
2021/03/27 01:14:07;;;;;;;38.53;22.20;;;;;;;1.69;59.90;97839.61;1742524;81;21653;-81
2021/03/27 01:16:40;;;;;;;37.05;19.67;;;;;;;1.67;59.68;97838.80;1761953;80;21567;-80
2021/03/27 01:19:16;;;;;;;35.23;19.98;;;;;;;1.62;60.23;97842.02;1786227;80;21132;-79
2021/03/27 01:21:47;;;;;;;37.53;20.65;;;;;;;1.58;60.34;97838.63;1808895;79;21278;-81
2021/03/27 01:24:17;;;;;;;41.25;22.60;;;;;;;1.57;60.20;97846.05;1819790;79;21270;-79
2021/03/27 01:27:02;;;;;;;35.75;18.35;;;;;;;1.57;59.81;97840.86;1819775;79;21124;-80
2021/03/27 01:29:43;;;;;;;39.18;22.05;;;;;;;1.54;59.96;97848.74;1800997;79;21266;-80
2021/03/27 01:32:21;;;;;;;37.98;22.58;;;;;;;1.52;60.09;97846.64;1797339;80;21132;-79
2021/03/27 01:35:06;;;;;;;41.55;20.35;;;;;;;1.49;60.42;97845.42;1792943;79;21242;-80
2021/03/27 01:38:12;;;;;;;38.38;21.87;;;;;;;1.45;60.42;97839.48;1771804;80;21262;-81
2021/03/27 01:41:03;;;;;;;40.10;22.00;;;;;;;1.42;60.26;97842.63;1796670;80;21108;-81
2021/03/27 01:43:54;;;;;;;37.23;20.57;;;;;;;1.39;60.33;97844.41;1778615;80;21187;-79
2021/03/27 01:46:53;;;;;;;34.70;21.65;;;;;;;1.34;60.89;97843.72;1766437;80;21246;-78
2021/03/27 01:50:10;;;;;;;35.88;21.52;;;;;;;1.31;60.30;97849.46;1780986;80;21259;-81
2021/03/27 01:53:03;;;;;;;31.85;17.65;;;;;;;1.29;60.26;97846.05;1780973;80;21163;-79
2021/03/27 01:56:28;;;;;;;35.98;20.90;;;;;;;1.23;60.46;97847.09;1788492;80;21155;-81
2021/03/27 01:59:27;;;;;;;36.23;19.90;;;;;;;1.20;60.39;97848.05;1815268;79;21765;-80
2021/03/27 02:02:09;;;;;;;36.28;19.20;;;;;;;1.17;60.76;97849.42;1767649;81;21182;-80
2021/03/27 02:04:53;;;;;;;38.85;21.42;;;;;;;1.16;60.83;97853.38;1760123;81;21179;-81
2021/03/27 02:07:29;;;;;;;35.52;19.92;;;;;;;1.12;60.87;97848.72;1758671;80;21140;-79
2021/03/27 02:10:04;;;;;;;39.33;20.35;;;;;;;1.11;61.10;97853.98;1810004;79;21628;-81
2021/03/27 02:13:00;;;;;;;33.53;18.17;;;;;;;1.06;61.16;97854.11;1808795;78;21125;-81
2021/03/27 02:16:03;;;;;;;38.50;23.63;;;;;;;1.02;61.48;97855.09;1807931;78;21131;-79
2021/03/27 02:19:10;;;;;;;35.75;19.20;;;;;;;1.00;61.47;97859.03;1838203;77;21214;-80
2021/03/27 02:21:58;;;;;;;37.75;20.72;;;;;;;0.97;61.84;97856.98;1822492;77;21128;-78
2021/03/27 02:24:46;;;;;;;37.77;21.77;;;;;;;0.92;61.68;97855.82;1810124;79;21606;-82
2021/03/27 02:27:22;;;;;;;35.77;20.57;;;;;;;0.88;61.64;97861.98;1815875;78;21152;-80
2021/03/27 02:30:10;;;;;;;37.73;20.15;;;;;;;0.83;62.02;97867.77;1817498;79;21309;-80
2021/03/27 02:32:58;;;;;;;38.35;20.95;;;;;;;0.76;61.60;97866.63;1840763;78;21156;-82
2021/03/27 02:35:54;;;;;;;37.83;20.82;;;;;;;0.73;61.58;97865.43;1847979;78;21254;-79
2021/03/27 02:38:42;;;;;;;41.30;19.97;;;;;;;0.70;62.03;97872.42;1844668;78;21227;-81
2021/03/27 02:41:58;;;;;;;36.37;21.87;;;;;;;0.69;62.08;97868.16;1837016;78;21579;-80
2021/03/27 02:44:33;;;;;;;32.33;18.07;;;;;;;0.67;62.02;97867.34;1850554;77;21132;-82
2021/03/27 02:47:41;;;;;;;30.62;16.30;;;;;;;0.58;62.16;97874.49;1850824;78;21247;-77
2021/03/27 02:50:58;;;;;;;37.40;20.05;;;;;;;0.59;62.10;97875.33;1794415;79;21255;-80
2021/03/27 02:53:48;;;;;;;33.08;17.07;;;;;;;0.56;62.42;97876.27;1816602;79;21092;-80
2021/03/27 02:56:54;;;;;;;32.17;18.43;;;;;;;0.53;62.43;97870.31;1828485;77;21090;-81
2021/03/27 02:59:27;;;;;;;38.13;19.90;;;;;;;0.54;62.44;97878.05;1847196;78;21651;-78
2021/03/27 03:02:25;;;;;;;32.17;16.70;;;;;;;0.55;62.49;97877.16;1850438;77;21144;-79
2021/03/27 03:05:46;;;;;;;34.80;17.63;;;;;;;0.53;62.53;97872.91;1849420;77;21132;-78
2021/03/27 03:08:38;;;;;;;34.63;19.70;;;;;;;0.52;62.23;97868.16;1833825;77;21355;-80
2021/03/27 03:11:16;;;;;;;33.97;18.80;;;;;;;0.55;62.50;97871.97;1816767;78;21085;-78
2021/03/27 03:13:57;;;;;;;33.80;17.80;;;;;;;0.57;62.69;97874.52;1847879;78;21152;-78
2021/03/27 03:17:13;;;;;;;36.07;19.53;;;;;;;0.59;62.54;97872.73;1846732;77;21146;-80
2021/03/27 03:20:05;;;;;;;33.97;17.63;;;;;;;0.59;62.58;97871.01;1840830;78;21113;-80
2021/03/27 03:22:47;;;;;;;31.40;16.87;;;;;;;0.58;62.64;97873.20;1848380;77;21132;-81
2021/03/27 03:25:19;;;;;;;30.37;17.00;;;;;;;0.59;62.29;97874.03;1847109;77;21278;-80
2021/03/27 03:27:58;;;;;;;34.58;16.67;;;;;;;0.61;62.70;97869.66;1847139;77;21128;-81
2021/03/27 03:30:52;;;;;;;34.73;17.02;;;;;;;0.61;62.76;97870.95;1845029;78;21294;-81
2021/03/27 03:33:47;;;;;;;32.10;18.97;;;;;;;0.60;62.93;97871.84;1817190;79;21592;-79
2021/03/27 03:36:40;;;;;;;29.33;16.50;;;;;;;0.60;62.73;97868.79;1817132;79;21149;-78
2021/03/27 03:39:13;;;;;;;30.27;16.03;;;;;;;0.58;62.93;97878.81;1820347;79;21132;-77
2021/03/27 03:42:30;;;;;;;32.07;18.03;;;;;;;0.57;62.80;97877.11;1816197;78;21144;-78
2021/03/27 03:45:12;;;;;;;30.93;16.47;;;;;;;0.56;63.26;97875.41;1830024;78;21116;-78
2021/03/27 03:47:56;;;;;;;30.17;15.50;;;;;;;0.51;63.22;97877.28;1828321;77;21124;-80
2021/03/27 03:50:49;;;;;;;38.23;19.55;;;;;;;0.46;63.12;97874.81;1795262;79;21573;-78
2021/03/27 03:53:37;;;;;;;29.72;15.38;;;;;;;0.42;63.26;97883.56;1795524;79;21160;-79
2021/03/27 03:56:10;;;;;;;30.20;17.27;;;;;;;0.37;63.26;97888.03;1818685;78;21226;-80
2021/03/27 03:58:57;;;;;;;35.85;20.37;;;;;;;0.36;63.29;97887.63;1841149;78;21519;-79
2021/03/27 04:01:41;;;;;;;37.70;18.45;;;;;;;0.32;63.16;97888.61;1850439;77;21149;-78
2021/03/27 04:04:28;;;;;;;32.70;17.82;;;;;;;0.29;63.31;97886.92;1822430;78;21641;-78
2021/03/27 04:07:02;;;;;;;32.58;18.52;;;;;;;0.25;63.34;97882.27;1788529;79;21247;-79
2021/03/27 04:09:47;;;;;;;40.23;21.00;;;;;;;0.23;63.03;97881.45;1816090;78;21128;-78
2021/03/27 04:12:32;;;;;;;33.87;17.67;;;;;;;0.26;63.57;97880.09;1815071;78;21254;-79
2021/03/27 04:15:16;;;;;;;33.53;18.07;;;;;;;0.27;63.83;97879.20;1807263;78;21132;-78
2021/03/27 04:17:55;;;;;;;30.40;16.40;;;;;;;0.28;63.60;97883.92;1825980;78;21238;-81
2021/03/27 04:20:35;;;;;;;29.70;16.33;;;;;;;0.26;63.56;97881.84;1848949;77;21120;-81
2021/03/27 04:23:21;;;;;;;30.97;18.57;;;;;;;0.26;63.74;97886.57;1846925;78;21243;-81
2021/03/27 04:26:00;;;;;;;30.80;15.70;;;;;;;0.27;63.59;97888.27;1817607;79;21125;-79
2021/03/27 04:29:11;;;;;;;28.20;16.37;;;;;;;0.28;63.81;97891.28;1816699;79;21186;-79
2021/03/27 04:32:26;;;;;;;31.40;17.67;;;;;;;0.29;63.53;97893.41;1817167;79;21143;-77
2021/03/27 04:35:26;;;;;;;34.37;16.83;;;;;;;0.37;64.81;97898.41;1818948;79;21238;-79
2021/03/27 04:38:11;;;;;;;29.80;17.95;;;;;;;0.46;64.73;97904.66;1840108;77;21135;-80
2021/03/27 04:40:53;;;;;;;37.87;19.37;;;;;;;0.52;64.46;97907.07;1824716;77;21120;-76
2021/03/27 04:43:39;;;;;;;31.27;16.80;;;;;;;0.55;64.34;97903.56;1856521;77;21243;-79
2021/03/27 04:46:15;;;;;;;32.30;18.55;;;;;;;0.55;64.42;97905.70;1797947;78;21152;-79
2021/03/27 04:48:54;;;;;;;33.60;20.70;;;;;;;0.57;64.11;97913.00;1820925;77;21117;-80
2021/03/27 04:52:04;;;;;;;37.87;20.17;;;;;;;0.62;64.14;97912.87;1820081;78;21128;-77
2021/03/27 04:54:37;;;;;;;37.40;18.82;;;;;;;0.65;63.91;97905.45;1760132;82;21175;-80
2021/03/27 04:57:30;;;;;;;36.95;21.00;;;;;;;0.70;63.86;97907.46;1759632;82;21235;-79
2021/03/27 05:00:34;;;;;;;37.53;21.83;;;;;;;0.78;63.72;97906.83;1794565;79;21273;-78
2021/03/27 05:03:28;;;;;;;36.53;18.90;;;;;;;0.86;63.66;97915.67;1822511;78;21124;-79
2021/03/27 05:06:17;;;;;;;39.67;21.25;;;;;;;0.90;63.33;97918.14;1832166;78;21338;-81
2021/03/27 05:09:02;;;;;;;37.30;21.60;;;;;;;0.98;63.28;97913.17;1797568;78;21602;-79
2021/03/27 05:11:44;;;;;;;34.65;18.95;;;;;;;1.03;63.14;97915.21;1839090;77;21097;-78
2021/03/27 05:14:35;;;;;;;37.57;21.27;;;;;;;1.03;62.86;97921.24;1728243;83;21620;-81
2021/03/27 05:17:30;;;;;;;36.60;21.27;;;;;;;1.10;62.68;97918.03;1728710;82;21154;-81
2021/03/27 05:20:06;;;;;;;37.15;20.40;;;;;;;1.19;62.76;97924.72;1728144;83;21365;-80
2021/03/27 05:23:34;;;;;;;35.40;19.77;;;;;;;1.35;62.83;97923.79;1822382;78;24121;-79
2021/03/27 05:26:23;;;;;;;37.40;21.07;;;;;;;1.43;62.50;97921.84;1783916;80;21278;-80
2021/03/27 05:29:13;;;;;;;36.40;20.10;;;;;;;1.83;62.71;97925.78;1706511;81;21703;-82
2021/03/27 05:32:18;;;;;;;37.98;19.82;;;;;;;2.42;62.70;97923.02;1782026;80;21309;-79
2021/03/27 05:34:52;;;;;;;32.35;18.00;;;;;;;3.03;61.96;97920.00;1792037;80;21262;-82
2021/03/27 05:37:37;;;;;;;31.15;18.80;;;;;;;3.77;60.84;97920.70;1790962;80;21136;-80
2021/03/27 05:40:33;;;;;;;32.35;18.50;;;;;;;4.42;59.96;97921.98;1793519;80;21139;-79
2021/03/27 05:43:27;;;;;;;32.95;19.20;;;;;;;5.01;58.41;97920.34;1795049;80;21285;-83
2021/03/27 05:46:32;;;;;;;30.95;20.08;;;;;;;5.58;57.39;97917.73;1795658;80;21135;-80
2021/03/27 05:49:22;;;;;;;32.78;19.75;;;;;;;6.11;56.87;97921.80;1786169;80;21153;-80
2021/03/27 05:52:12;;;;;;;31.68;19.65;;;;;;;6.59;55.17;97923.81;1689773;84;21620;-87
2021/03/27 05:55:17;;;;;;;35.50;20.52;;;;;;;7.11;54.03;97919.78;1696818;83;21163;-79
2021/03/27 05:58:19;;;;;;;34.75;19.35;;;;;;;7.66;52.85;97916.41;1726310;83;21157;-85
2021/03/27 06:01:11;;;;;;;34.30;20.43;;;;;;;8.19;51.78;97916.95;1666791;83;21156;-86
2021/03/27 06:04:18;;;;;;;32.10;18.82;;;;;;;8.98;50.71;97911.03;1746281;82;21134;-86
2021/03/27 06:07:13;;;;;;;27.40;17.42;;;;;;;8.98;50.71;97911.03;1692291;84;21155;-83
2021/03/27 06:10:13;;;;;;;31.07;18.60;;;;;;;9.43;49.26;97916.65;1699678;83;21181;-82
2021/03/27 06:13:21;;;;;;;27.17;18.12;;;;;;;9.84;47.77;97915.34;1699384;84;21175;-79
2021/03/27 06:16:17;;;;;;;26.57;18.05;;;;;;;10.28;47.46;97913.88;1699351;84;21179;-83
2021/03/27 06:19:17;;;;;;;24.82;17.00;;;;;;;10.76;45.20;97919.94;1699385;84;21324;-78
2021/03/27 06:22:14;;;;;;;25.65;16.48;;;;;;;11.14;44.48;97921.74;1658663;86;21225;-85
2021/03/27 06:25:42;;;;;;;24.32;17.20;;;;;;;11.66;40.18;97909.75;1762463;79;24457;-85
2021/03/27 06:28:55;;;;;;;25.88;17.20;;;;;;;11.86;42.51;97906.52;1738873;82;21150;-85
2021/03/27 06:31:43;;;;;;;27.55;18.60;;;;;;;12.27;43.08;97910.24;1747309;82;21132;-87
2021/03/27 06:34:43;;;;;;;25.90;18.42;;;;;;;12.58;42.30;97917.17;1752928;82;21141;-86
2021/03/27 06:37:48;;;;;;;25.45;16.55;;;;;;;12.70;42.65;97915.43;1680054;82;21187;-85
2021/03/27 06:40:23;;;;;;;26.45;17.67;;;;;;;12.99;40.15;97913.19;1734461;82;21194;-83
2021/03/27 06:43:26;;;;;;;25.27;17.87;;;;;;;13.42;37.81;97917.80;1726733;82;21605;-82
2021/03/27 06:46:05;;;;;;;25.35;17.75;;;;;;;13.61;38.95;97916.34;1729626;82;21156;-83
2021/03/27 06:49:19;;;;;;;25.80;18.30;;;;;;;13.82;38.22;97915.59;1733263;82;21214;-84
2021/03/27 06:52:18;;;;;;;29.35;19.37;;;;;;;13.99;38.15;97915.55;1708890;82;21246;-85
2021/03/27 06:55:08;;;;;;;30.65;19.17;;;;;;;14.27;37.43;97907.98;1721187;83;21608;-83
2021/03/27 06:57:56;;;;;;;22.67;16.05;;;;;;;14.48;34.22;97910.66;1720156;83;21104;-83
2021/03/27 07:00:49;;;;;;;28.05;17.80;;;;;;;14.56;35.23;97906.88;1719104;82;21197;-84
2021/03/27 07:03:54;;;;;;;27.77;18.23;;;;;;;14.71;36.03;97914.57;1721864;83;21176;-82
2021/03/27 07:06:47;;;;;;;28.00;18.67;;;;;;;14.74;35.54;97922.25;1712022;83;21712;-81
2021/03/27 07:09:43;;;;;;;33.58;18.45;;;;;;;14.93;35.13;97921.55;1701597;83;21207;-82
2021/03/27 07:12:49;;;;;;;27.02;19.10;;;;;;;15.08;34.93;97920.73;1658281;83;21593;-83
2021/03/27 07:15:44;;;;;;;27.65;17.27;;;;;;;15.18;34.51;97918.94;1722508;83;21664;-80
2021/03/27 07:18:35;;;;;;;24.43;18.17;;;;;;;15.35;33.82;97916.16;1722700;83;21217;-80
2021/03/27 07:21:32;;;;;;;31.55;21.50;;;;;;;15.46;34.68;97921.85;1722992;82;21140;-86
2021/03/27 07:24:17;;;;;;;30.10;18.45;;;;;;;15.64;33.94;97915.92;1720542;83;21132;-84
2021/03/27 07:27:12;;;;;;;27.98;18.50;;;;;;;15.75;33.96;97918.45;1711554;83;21144;-86
2021/03/27 07:30:38;;;;;;;27.70;19.37;;;;;;;15.82;33.26;97917.42;1711054;83;21152;-84
2021/03/27 07:33:24;;;;;;;30.65;18.70;;;;;;;15.72;33.46;97911.59;1724454;83;21618;-80
2021/03/27 07:36:06;;;;;;;31.33;19.70;;;;;;;15.33;33.69;97919.92;1710318;83;21155;-85
2021/03/27 07:39:23;;;;;;;24.30;17.17;;;;;;;15.28;33.57;97919.83;1721506;83;21167;-85
2021/03/27 07:41:56;;;;;;;31.80;21.60;;;;;;;15.12;33.29;97916.81;1716321;83;21140;-87
2021/03/27 07:44:31;;;;;;;29.25;20.17;;;;;;;14.19;33.28;97916.09;1723877;83;21642;-83
2021/03/27 07:47:31;;;;;;;32.73;23.35;;;;;;;14.00;33.71;97915.91;1724112;83;21179;-84
2021/03/27 07:50:25;;;;;;;33.80;22.10;;;;;;;13.76;32.72;97909.47;1723526;83;21290;-87
2021/03/27 07:53:09;;;;;;;37.95;22.62;;;;;;;13.38;33.95;97915.02;1720528;83;21334;-84
2021/03/27 07:56:14;;;;;;;31.42;20.15;;;;;;;13.38;33.95;97915.02;1723810;83;21112;-85
2021/03/27 07:58:53;;;;;;;36.48;23.35;;;;;;;13.13;33.97;97916.91;1721549;82;21310;-81
2021/03/27 08:01:33;;;;;;;42.43;26.42;;;;;;;12.59;34.26;97914.90;1723358;83;21331;-83
2021/03/27 08:04:33;;;;;;;40.80;25.82;;;;;;;12.51;35.23;97908.89;1723524;83;21156;-86
2021/03/27 08:07:24;;;;;;;36.25;26.27;;;;;;;12.54;35.01;97911.77;1721198;83;21574;-86
2021/03/27 08:10:20;;;;;;;25.20;17.60;;;;;;;12.53;35.79;97919.34;1715911;83;21164;-84
2021/03/27 08:13:22;;;;;;;39.45;24.23;;;;;;;12.64;35.75;97923.34;1714339;83;21136;-82
2021/03/27 08:16:33;;;;;;;27.20;17.73;;;;;;;12.54;35.55;97923.67;1723869;83;21159;-85
2021/03/27 08:19:38;;;;;;;44.13;28.30;;;;;;;12.26;35.57;97916.48;1724115;83;21571;-86
2021/03/27 08:22:56;;;;;;;32.88;22.32;;;;;;;11.77;36.50;97921.72;1723943;83;21726;-84
2021/03/27 08:25:50;;;;;;;;;;;;;;;11.71;37.08;97922.17;1733610;83;21163;-87
2021/03/27 08:28:44;;;;;;;34.03;20.80;;;;;;;11.65;37.73;97918.63;1731412;83;20151;-86
2021/03/27 08:32:05;;;;;;;46.25;29.48;;;;;;;11.61;37.88;97919.33;1731532;83;21151;-87
2021/03/27 08:35:04;;;;;;;38.80;24.75;;;;;;;11.62;38.80;97911.77;1697591;83;21183;-88
2021/03/27 08:38:00;;;;;;;37.08;22.65;;;;;;;11.88;38.33;97914.33;1731646;83;21158;-88
2021/03/27 08:40:55;;;;;;;47.13;30.48;;;;;;;11.85;38.22;97914.57;1731441;83;21108;-88
2021/03/27 08:43:43;;;;;;;42.90;26.10;;;;;;;11.82;38.52;97911.69;1731515;83;21597;-87
2021/03/27 08:46:39;;;;;;;52.10;29.63;;;;;;;11.72;38.59;97905.37;1731275;83;21176;-88
2021/03/27 08:49:30;;;;;;;51.10;34.60;;;;;;;11.58;38.92;97902.86;1731485;83;21148;-82
2021/03/27 08:52:43;;;;;;;61.63;29.37;;;;;;;11.50;39.64;97891.55;1722716;83;21686;-84
2021/03/27 08:55:57;;;;;;;46.08;29.25;;;;;;;11.60;39.65;97901.80;1731501;83;21584;-90
2021/03/27 08:58:45;;;;;;;51.18;33.28;;;;;;;11.67;39.62;97902.20;1731388;83;21612;-86
2021/03/27 09:01:36;;;;;;;55.30;36.95;;;;;;;11.55;40.13;97896.84;1729098;83;21116;-86
2021/03/27 09:04:24;;;;;;;54.83;34.83;;;;;;;11.50;40.25;97891.55;1731345;83;21572;-89
2021/03/27 09:07:38;;;;;;;42.20;25.23;;;;;;;11.61;40.67;97891.60;1731804;83;21608;-83
2021/03/27 09:10:49;;;;;;;59.55;36.17;;;;;;;11.66;40.21;97888.63;1723076;83;21300;-86
2021/03/27 09:13:37;;;;;;;50.67;34.40;;;;;;;11.53;40.64;97882.07;1729531;83;21139;-85
2021/03/27 09:16:43;;;;;;;52.98;33.28;;;;;;;11.64;40.68;97880.00;1670847;86;21207;-87
2021/03/27 09:19:16;;;;;;;;;;;;;;;11.59;40.72;97873.73;1673610;84;21219;-89
2021/03/27 09:21:57;;;;;;;50.55;32.53;;;;;;;11.80;40.48;97872.64;1670937;84;20151;-81
2021/03/27 09:25:00;;;;;;;43.15;27.40;;;;;;;11.92;40.29;97872.70;1654373;85;21218;-88
2021/03/27 09:28:13;;;;;;;34.50;22.25;;;;;;;12.13;39.71;97871.13;1621965;88;21214;-89
2021/03/27 09:30:53;;;;;;;35.43;21.37;;;;;;;12.11;39.11;97863.78;1635062;88;21207;-90
2021/03/27 09:33:38;;;;;;;45.75;29.57;;;;;;;12.11;39.22;97851.06;1620641;88;21193;-86
2021/03/27 09:36:25;;;;;;;29.60;17.48;;;;;;;12.17;39.95;97864.67;1634881;88;21225;-88
2021/03/27 09:39:19;;;;;;;43.25;27.45;;;;;;;12.24;38.32;97856.27;1606753;87;21607;-86
2021/03/27 09:42:23;;;;;;;50.28;29.00;;;;;;;12.11;38.36;97854.54;1635341;88;21616;-84
2021/03/27 09:45:29;;;;;;;36.68;24.92;;;;;;;12.26;38.71;97844.63;1816996;77;24564;-88
2021/03/27 09:48:16;;;;;;;31.60;18.70;;;;;;;12.26;37.64;97854.36;1739039;78;21203;-82
2021/03/27 09:50:52;;;;;;;38.97;24.93;;;;;;;12.33;37.34;97855.58;1769885;80;21594;-82
2021/03/27 09:53:52;;;;;;;37.75;26.37;;;;;;;12.24;36.92;97839.09;1773733;80;21585;-81
2021/03/27 09:56:42;;;;;;;32.88;23.65;;;;;;;12.32;37.98;97843.32;1751282;80;21573;-86
2021/03/27 09:59:55;;;;;;;33.42;20.23;;;;;;;12.48;37.76;97845.16;1770199;80;21116;-83
2021/03/27 10:02:39;;;;;;;38.78;26.35;;;;;;;12.60;37.23;97850.47;1761904;81;21152;-82
2021/03/27 10:05:35;;;;;;;44.40;26.30;;;;;;;12.52;37.33;97839.64;1760089;80;21151;-88
2021/03/27 10:08:20;;;;;;;33.28;22.10;;;;;;;12.56;37.06;97837.97;1707462;82;21183;-81
2021/03/27 10:11:13;;;;;;;31.45;20.45;;;;;;;12.64;36.91;97838.72;1726809;83;21196;-85
2021/03/27 10:14:04;;;;;;;29.55;20.15;;;;;;;12.77;37.28;97834.64;1704179;83;21172;-84
2021/03/27 10:16:52;;;;;;;36.77;21.02;;;;;;;12.90;36.06;97842.45;1661460;86;21176;-84
2021/03/27 10:19:34;;;;;;;35.80;19.27;;;;;;;12.95;36.34;97836.31;1770643;80;21104;-83
2021/03/27 10:22:35;;;;;;;32.70;20.72;;;;;;;13.02;36.21;97824.30;1758638;80;21565;-88
2021/03/27 10:25:20;;;;;;;29.27;16.15;;;;;;;13.07;35.69;97830.06;1759201;81;21173;-87
2021/03/27 10:28:01;;;;;;;19.75;12.37;;;;;;;13.00;33.61;97826.69;1759142;81;21179;-86
2021/03/27 10:30:53;;;;;;;31.05;19.87;;;;;;;12.88;34.05;97828.50;1788235;80;21605;-89
2021/03/27 10:33:53;;;;;;;27.77;15.78;;;;;;;12.87;34.92;97828.99;1789098;80;21585;-87
2021/03/27 10:36:44;;;;;;;30.55;20.75;;;;;;;12.99;34.33;97829.83;1789722;80;21696;-90
2021/03/27 10:39:46;;;;;;;29.77;21.10;;;;;;;13.06;34.85;97820.44;1789620;80;21198;-89
2021/03/27 10:42:30;;;;;;;30.75;20.68;;;;;;;13.20;34.35;97819.84;1789501;80;21144;-87
2021/03/27 10:45:37;;;;;;;34.18;19.73;;;;;;;13.33;34.50;97812.58;1782553;80;21184;-88
2021/03/27 10:48:13;;;;;;;31.85;19.67;;;;;;;13.44;34.15;97811.77;1781607;80;21152;-87
2021/03/27 10:50:50;;;;;;;;;;;;;;;13.52;34.82;97803.19;1783971;80;21121;-85
2021/03/27 10:53:32;;;;;;;15.40;8.08;;;;;;;13.66;34.56;97810.86;1781780;80;20143;-86
2021/03/27 10:56:22;;;;;;;29.55;20.32;;;;;;;13.64;32.63;97802.20;1714017;84;21180;-88
2021/03/27 10:59:25;;;;;;;28.15;19.57;;;;;;;13.55;32.78;97804.27;1781063;80;21184;-85
2021/03/27 11:02:32;;;;;;;23.45;15.50;;;;;;;13.56;33.47;97808.60;1780947;80;21165;-88
2021/03/27 11:05:32;;;;;;;21.80;12.85;;;;;;;13.67;33.45;97799.77;1724979;80;21176;-89
2021/03/27 11:08:33;;;;;;;23.77;16.62;;;;;;;13.64;31.67;97800.87;1780909;80;21124;-90
2021/03/27 11:11:42;;;;;;;24.92;14.07;;;;;;;13.55;31.99;97797.65;1780758;80;21152;-86
2021/03/27 11:14:50;;;;;;;28.45;18.57;;;;;;;13.49;31.69;97797.66;1780743;80;21555;-87
2021/03/27 11:18:17;;;;;;;24.07;15.45;;;;;;;13.47;32.24;97802.23;1714342;83;21693;-87
2021/03/27 11:21:11;;;;;;;23.85;14.50;;;;;;;13.59;31.83;97783.20;1714745;83;21156;-86
2021/03/27 11:23:50;;;;;;;22.98;15.55;;;;;;;13.73;30.99;97784.22;1780745;80;21129;-88
2021/03/27 11:27:01;;;;;;;18.23;12.25;;;;;;;13.84;31.80;97782.50;1714196;84;21156;-89
2021/03/27 11:29:52;;;;;;;26.68;16.57;;;;;;;13.89;31.21;97781.15;1714422;83;21180;-87
2021/03/27 11:32:27;;;;;;;29.45;17.62;;;;;;;13.88;30.64;97784.77;1780221;80;21144;-87
2021/03/27 11:35:06;;;;;;;25.00;14.75;;;;;;;13.90;30.10;97784.16;1714348;83;21157;-88
2021/03/27 11:37:51;;;;;;;19.32;12.90;;;;;;;14.00;30.78;97776.27;1781066;80;21156;-87
2021/03/27 11:40:44;;;;;;;30.85;17.10;;;;;;;14.12;30.58;97778.87;1714720;84;21652;-87
2021/03/27 11:43:40;;;;;;;29.23;17.48;;;;;;;14.14;31.49;97768.98;1714145;84;21177;-84
2021/03/27 11:46:13;;;;;;;29.23;17.95;;;;;;;14.17;30.69;97764.73;1772600;81;21149;-88
2021/03/27 11:48:55;;;;;;;26.50;17.42;;;;;;;14.28;30.35;97771.80;1706402;84;21180;-86
2021/03/27 11:51:43;;;;;;;23.60;16.85;;;;;;;14.29;30.15;97768.17;1705236;84;21176;-87
2021/03/27 11:54:25;;;;;;;19.92;13.40;;;;;;;14.33;30.80;97764.27;1706693;83;21186;-88
2021/03/27 11:57:30;;;;;;;23.47;16.07;;;;;;;14.49;30.66;97762.48;1658085;84;21193;-85
2021/03/27 12:00:48;;;;;;;24.10;16.02;;;;;;;14.57;30.99;97763.98;1706606;84;21204;-85
2021/03/27 12:03:40;;;;;;;26.55;17.05;;;;;;;14.56;29.91;97757.50;1706270;84;21185;-86
2021/03/27 12:06:28;;;;;;;29.77;17.50;;;;;;;14.64;29.73;97765.13;1772891;81;21135;-86
2021/03/27 12:09:13;;;;;;;26.27;15.98;;;;;;;14.67;29.97;97761.39;1772404;81;21646;-90
2021/03/27 12:12:01;;;;;;;25.75;17.92;;;;;;;14.67;29.55;97754.30;1772381;81;21205;-86
2021/03/27 12:15:18;;;;;;;28.47;16.80;;;;;;;14.60;29.55;97745.16;1763823;81;21151;-84
2021/03/27 12:18:10;;;;;;;;;;;;;;;14.56;29.13;97753.02;1746390;81;21150;-84
2021/03/27 12:21:14;;;;;;;26.02;15.48;;;;;;;14.63;29.36;97752.83;1742877;82;20137;-85
2021/03/27 12:24:11;;;;;;;24.45;15.90;;;;;;;14.62;28.51;97757.78;1744104;81;21649;-87
2021/03/27 12:27:04;;;;;;;22.73;13.68;;;;;;;14.64;29.24;97752.36;1850692;77;24072;-85
2021/03/27 12:29:45;;;;;;;31.02;17.40;;;;;;;14.65;29.39;97748.74;1827310;78;21136;-85
2021/03/27 12:32:42;;;;;;;25.27;16.62;;;;;;;14.68;29.92;97747.16;1820298;78;21230;-89
2021/03/27 12:35:45;;;;;;;23.77;16.95;;;;;;;14.83;30.06;97743.66;1820627;78;21566;-82
2021/03/27 12:39:02;;;;;;;22.27;14.47;;;;;;;14.92;29.97;97746.83;1827845;78;21181;-86
2021/03/27 12:41:52;;;;;;;15.88;7.95;;;;;;;14.93;29.26;97743.70;1795434;80;21145;-89
2021/03/27 12:44:40;;;;;;;22.60;14.10;;;;;;;14.92;27.91;97746.01;1840257;77;21105;-87
2021/03/27 12:47:40;;;;;;;25.82;15.78;;;;;;;14.68;28.17;97746.69;1763216;80;21167;-85
2021/03/27 12:50:21;;;;;;;25.05;13.38;;;;;;;14.51;28.66;97752.59;1697146;82;21186;-85
2021/03/27 12:53:11;;;;;;;22.17;14.30;;;;;;;14.58;29.18;97747.09;1738571;81;21188;-81
2021/03/27 12:56:04;;;;;;;16.60;11.05;;;;;;;14.58;28.53;97735.63;1749265;81;21160;-85
2021/03/27 12:58:45;;;;;;;24.10;15.83;;;;;;;14.63;28.60;97747.53;1739204;81;21187;-83
2021/03/27 13:01:40;;;;;;;24.90;17.75;;;;;;;14.58;28.34;97744.45;1747465;81;21159;-83
2021/03/27 13:04:56;;;;;;;24.02;13.72;;;;;;;14.60;29.17;97735.88;1752158;81;21179;-83
2021/03/27 13:07:38;;;;;;;23.15;16.10;;;;;;;14.72;29.26;97741.09;1756488;81;22028;-84
2021/03/27 13:10:53;;;;;;;28.83;16.65;;;;;;;14.78;29.40;97736.60;1757769;81;21273;-84
2021/03/27 13:13:52;;;;;;;24.67;14.98;;;;;;;14.80;29.39;97738.64;1757454;81;21182;-84
2021/03/27 13:16:43;;;;;;;22.25;15.43;;;;;;;14.87;28.85;97738.45;1677200;82;21228;-84